sensor_id;sensor_type;location;lat;lon;timestamp;P1;durP1;ratioP1;P2;durP2;ratioP2
37097;SDS011;63608;49.572;12.348;2023-01-26T00:01:42;34.30;;;17.50;;
37097;SDS011;63608;49.572;12.348;2023-01-26T00:03:44;33.60;;;16.87;;
37097;SDS011;63608;49.572;12.348;2023-01-26T00:05:47;35.63;;;16.80;;
37097;SDS011;63608;49.572;12.348;2023-01-26T00:07:49;42.47;;;18.33;;
37097;SDS011;63608;49.572;12.348;2023-01-26T00:09:51;37.00;;;18.20;;
37097;SDS011;63608;49.572;12.348;2023-01-26T00:11:53;34.90;;;17.80;;
37097;SDS011;63608;49.572;12.348;2023-01-26T00:13:57;36.30;;;18.10;;
37097;SDS011;63608;49.572;12.348;2023-01-26T00:16:00;36.77;;;17.93;;
37097;SDS011;63608;49.572;12.348;2023-01-26T00:18:03;40.37;;;18.40;;
37097;SDS011;63608;49.572;12.348;2023-01-26T00:20:05;30.87;;;16.70;;
37097;SDS011;63608;49.572;12.348;2023-01-26T00:22:07;40.83;;;18.40;;
37097;SDS011;63608;49.572;12.348;2023-01-26T00:24:09;35.67;;;16.60;;
37097;SDS011;63608;49.572;12.348;2023-01-26T00:26:12;37.23;;;17.27;;
37097;SDS011;63608;49.572;12.348;2023-01-26T00:28:15;47.10;;;19.50;;
37097;SDS011;63608;49.572;12.348;2023-01-26T00:30:19;45.27;;;19.10;;
37097;SDS011;63608;49.572;12.348;2023-01-26T00:32:21;42.90;;;18.83;;
37097;SDS011;63608;49.572;12.348;2023-01-26T00:34:23;39.00;;;18.17;;
37097;SDS011;63608;49.572;12.348;2023-01-26T00:36:25;40.47;;;19.40;;
37097;SDS011;63608;49.572;12.348;2023-01-26T00:38:27;50.50;;;21.00;;
37097;SDS011;63608;49.572;12.348;2023-01-26T00:40:29;40.17;;;18.60;;
37097;SDS011;63608;49.572;12.348;2023-01-26T00:42:31;43.53;;;18.60;;
37097;SDS011;63608;49.572;12.348;2023-01-26T00:44:32;44.70;;;19.20;;
37097;SDS011;63608;49.572;12.348;2023-01-26T00:46:36;46.00;;;17.97;;
37097;SDS011;63608;49.572;12.348;2023-01-26T00:48:39;44.33;;;18.90;;
37097;SDS011;63608;49.572;12.348;2023-01-26T00:50:40;35.83;;;17.63;;
37097;SDS011;63608;49.572;12.348;2023-01-26T00:52:42;39.10;;;18.30;;
37097;SDS011;63608;49.572;12.348;2023-01-26T00:54:44;40.90;;;18.17;;
37097;SDS011;63608;49.572;12.348;2023-01-26T00:56:46;39.97;;;17.60;;
37097;SDS011;63608;49.572;12.348;2023-01-26T00:58:48;40.20;;;18.03;;
37097;SDS011;63608;49.572;12.348;2023-01-26T01:00:52;49.40;;;17.97;;
37097;SDS011;63608;49.572;12.348;2023-01-26T01:02:55;42.27;;;17.77;;
37097;SDS011;63608;49.572;12.348;2023-01-26T01:04:57;36.17;;;17.00;;
37097;SDS011;63608;49.572;12.348;2023-01-26T01:06:59;34.90;;;16.17;;
37097;SDS011;63608;49.572;12.348;2023-01-26T01:09:01;35.43;;;17.50;;
37097;SDS011;63608;49.572;12.348;2023-01-26T01:11:04;35.60;;;16.83;;
37097;SDS011;63608;49.572;12.348;2023-01-26T01:13:06;36.13;;;17.23;;
37097;SDS011;63608;49.572;12.348;2023-01-26T01:15:08;44.33;;;18.47;;
37097;SDS011;63608;49.572;12.348;2023-01-26T01:17:11;41.10;;;18.17;;
37097;SDS011;63608;49.572;12.348;2023-01-26T01:19:14;35.60;;;16.53;;
37097;SDS011;63608;49.572;12.348;2023-01-26T01:21:16;36.07;;;17.07;;
37097;SDS011;63608;49.572;12.348;2023-01-26T01:23:18;48.70;;;17.93;;
37097;SDS011;63608;49.572;12.348;2023-01-26T01:25:20;34.00;;;16.27;;
37097;SDS011;63608;49.572;12.348;2023-01-26T01:27:23;43.13;;;17.40;;
37097;SDS011;63608;49.572;12.348;2023-01-26T01:29:25;39.77;;;16.90;;
37097;SDS011;63608;49.572;12.348;2023-01-26T01:31:27;38.70;;;18.20;;
37097;SDS011;63608;49.572;12.348;2023-01-26T01:33:29;38.80;;;17.00;;
37097;SDS011;63608;49.572;12.348;2023-01-26T01:35:32;41.97;;;17.53;;
37097;SDS011;63608;49.572;12.348;2023-01-26T01:37:35;37.90;;;17.93;;
37097;SDS011;63608;49.572;12.348;2023-01-26T01:39:37;41.07;;;17.20;;
37097;SDS011;63608;49.572;12.348;2023-01-26T01:41:39;46.90;;;17.20;;
37097;SDS011;63608;49.572;12.348;2023-01-26T01:43:41;31.87;;;16.07;;
37097;SDS011;63608;49.572;12.348;2023-01-26T01:45:43;50.80;;;19.00;;
37097;SDS011;63608;49.572;12.348;2023-01-26T01:47:46;33.90;;;15.83;;
37097;SDS011;63608;49.572;12.348;2023-01-26T01:49:48;36.53;;;17.00;;
37097;SDS011;63608;49.572;12.348;2023-01-26T01:51:53;30.70;;;15.67;;
37097;SDS011;63608;49.572;12.348;2023-01-26T01:53:59;31.70;;;16.07;;
37097;SDS011;63608;49.572;12.348;2023-01-26T01:56:06;28.87;;;15.50;;
37097;SDS011;63608;49.572;12.348;2023-01-26T01:58:10;44.10;;;17.47;;
37097;SDS011;63608;49.572;12.348;2023-01-26T02:00:13;34.03;;;16.50;;
37097;SDS011;63608;49.572;12.348;2023-01-26T02:02:17;30.33;;;16.20;;
37097;SDS011;63608;49.572;12.348;2023-01-26T02:04:21;30.73;;;16.20;;
37097;SDS011;63608;49.572;12.348;2023-01-26T02:06:25;47.10;;;18.50;;
37097;SDS011;63608;49.572;12.348;2023-01-26T02:08:32;36.57;;;16.63;;
37097;SDS011;63608;49.572;12.348;2023-01-26T02:10:35;35.57;;;17.03;;
37097;SDS011;63608;49.572;12.348;2023-01-26T02:12:37;38.30;;;17.53;;
37097;SDS011;63608;49.572;12.348;2023-01-26T02:14:39;32.60;;;16.10;;
37097;SDS011;63608;49.572;12.348;2023-01-26T02:16:41;41.93;;;17.10;;
37097;SDS011;63608;49.572;12.348;2023-01-26T02:18:44;37.60;;;17.33;;
37097;SDS011;63608;49.572;12.348;2023-01-26T02:20:48;36.77;;;17.47;;
37097;SDS011;63608;49.572;12.348;2023-01-26T02:22:52;33.20;;;16.87;;
37097;SDS011;63608;49.572;12.348;2023-01-26T02:25:00;29.40;;;15.10;;
37097;SDS011;63608;49.572;12.348;2023-01-26T02:27:09;29.47;;;15.23;;
37097;SDS011;63608;49.572;12.348;2023-01-26T02:29:11;28.53;;;14.80;;
37097;SDS011;63608;49.572;12.348;2023-01-26T02:31:13;32.83;;;16.70;;
37097;SDS011;63608;49.572;12.348;2023-01-26T02:33:16;35.70;;;16.70;;
37097;SDS011;63608;49.572;12.348;2023-01-26T02:35:18;37.07;;;17.70;;
37097;SDS011;63608;49.572;12.348;2023-01-26T02:37:20;35.30;;;17.17;;
37097;SDS011;63608;49.572;12.348;2023-01-26T02:39:28;38.60;;;17.47;;
37097;SDS011;63608;49.572;12.348;2023-01-26T02:41:39;38.23;;;16.23;;
37097;SDS011;63608;49.572;12.348;2023-01-26T02:44:00;34.30;;;15.93;;
37097;SDS011;63608;49.572;12.348;2023-01-26T02:46:02;34.00;;;15.80;;
37097;SDS011;63608;49.572;12.348;2023-01-26T02:48:04;32.37;;;15.50;;
37097;SDS011;63608;49.572;12.348;2023-01-26T02:50:07;33.93;;;15.20;;
37097;SDS011;63608;49.572;12.348;2023-01-26T02:52:09;32.93;;;16.20;;
37097;SDS011;63608;49.572;12.348;2023-01-26T02:54:11;30.60;;;15.17;;
37097;SDS011;63608;49.572;12.348;2023-01-26T02:56:33;32.50;;;15.40;;
37097;SDS011;63608;49.572;12.348;2023-01-26T02:58:39;34.30;;;16.00;;
37097;SDS011;63608;49.572;12.348;2023-01-26T03:00:42;35.43;;;14.80;;
37097;SDS011;63608;49.572;12.348;2023-01-26T03:02:44;34.60;;;15.90;;
37097;SDS011;63608;49.572;12.348;2023-01-26T03:04:46;35.57;;;16.50;;
37097;SDS011;63608;49.572;12.348;2023-01-26T03:06:48;30.70;;;15.97;;
37097;SDS011;63608;49.572;12.348;2023-01-26T03:08:50;32.63;;;15.23;;
37097;SDS011;63608;49.572;12.348;2023-01-26T03:10:52;30.73;;;14.53;;
37097;SDS011;63608;49.572;12.348;2023-01-26T03:12:54;29.83;;;15.23;;
37097;SDS011;63608;49.572;12.348;2023-01-26T03:14:56;32.27;;;14.90;;
37097;SDS011;63608;49.572;12.348;2023-01-26T03:17:13;29.17;;;14.87;;
37097;SDS011;63608;49.572;12.348;2023-01-26T03:19:15;35.13;;;14.80;;
37097;SDS011;63608;49.572;12.348;2023-01-26T03:21:34;30.30;;;15.40;;
37097;SDS011;63608;49.572;12.348;2023-01-26T03:23:53;30.30;;;14.90;;
37097;SDS011;63608;49.572;12.348;2023-01-26T03:26:13;35.40;;;16.07;;
37097;SDS011;63608;49.572;12.348;2023-01-26T03:28:32;35.27;;;15.70;;
37097;SDS011;63608;49.572;12.348;2023-01-26T03:30:34;33.77;;;15.43;;
37097;SDS011;63608;49.572;12.348;2023-01-26T03:32:37;31.40;;;14.57;;
37097;SDS011;63608;49.572;12.348;2023-01-26T03:34:39;32.33;;;14.83;;
37097;SDS011;63608;49.572;12.348;2023-01-26T03:36:41;33.47;;;15.33;;
37097;SDS011;63608;49.572;12.348;2023-01-26T03:38:43;32.47;;;16.00;;
37097;SDS011;63608;49.572;12.348;2023-01-26T03:40:46;36.83;;;16.60;;
37097;SDS011;63608;49.572;12.348;2023-01-26T03:43:06;34.67;;;16.43;;
37097;SDS011;63608;49.572;12.348;2023-01-26T03:45:25;25.53;;;13.33;;
37097;SDS011;63608;49.572;12.348;2023-01-26T03:47:46;37.27;;;15.57;;
37097;SDS011;63608;49.572;12.348;2023-01-26T03:50:08;28.03;;;14.27;;
37097;SDS011;63608;49.572;12.348;2023-01-26T03:52:30;30.07;;;13.70;;
37097;SDS011;63608;49.572;12.348;2023-01-26T03:54:50;29.87;;;13.80;;
37097;SDS011;63608;49.572;12.348;2023-01-26T03:57:09;30.00;;;14.13;;
37097;SDS011;63608;49.572;12.348;2023-01-26T03:59:11;28.00;;;13.40;;
37097;SDS011;63608;49.572;12.348;2023-01-26T04:01:14;32.53;;;14.97;;
37097;SDS011;63608;49.572;12.348;2023-01-26T04:03:20;27.10;;;13.40;;
37097;SDS011;63608;49.572;12.348;2023-01-26T04:05:39;26.97;;;13.63;;
37097;SDS011;63608;49.572;12.348;2023-01-26T04:08:00;25.00;;;12.90;;
37097;SDS011;63608;49.572;12.348;2023-01-26T04:10:22;23.57;;;12.97;;
37097;SDS011;63608;49.572;12.348;2023-01-26T04:12:24;29.13;;;13.50;;
37097;SDS011;63608;49.572;12.348;2023-01-26T04:14:33;26.50;;;14.10;;
37097;SDS011;63608;49.572;12.348;2023-01-26T04:16:52;28.10;;;13.07;;
37097;SDS011;63608;49.572;12.348;2023-01-26T04:19:14;28.07;;;13.77;;
37097;SDS011;63608;49.572;12.348;2023-01-26T04:21:33;27.97;;;13.43;;
37097;SDS011;63608;49.572;12.348;2023-01-26T04:23:36;25.50;;;13.80;;
37097;SDS011;63608;49.572;12.348;2023-01-26T04:25:38;28.57;;;13.80;;
37097;SDS011;63608;49.572;12.348;2023-01-26T04:27:40;27.50;;;13.70;;
37097;SDS011;63608;49.572;12.348;2023-01-26T04:29:43;27.30;;;13.10;;
37097;SDS011;63608;49.572;12.348;2023-01-26T04:31:45;27.23;;;13.70;;
37097;SDS011;63608;49.572;12.348;2023-01-26T04:33:46;24.03;;;12.83;;
37097;SDS011;63608;49.572;12.348;2023-01-26T04:35:50;26.40;;;13.47;;
37097;SDS011;63608;49.572;12.348;2023-01-26T04:37:52;22.97;;;11.50;;
37097;SDS011;63608;49.572;12.348;2023-01-26T04:39:54;24.07;;;12.43;;
37097;SDS011;63608;49.572;12.348;2023-01-26T04:41:56;22.93;;;12.37;;
37097;SDS011;63608;49.572;12.348;2023-01-26T04:43:57;21.43;;;11.80;;
37097;SDS011;63608;49.572;12.348;2023-01-26T04:46:03;23.53;;;12.30;;
37097;SDS011;63608;49.572;12.348;2023-01-26T04:48:06;21.83;;;11.83;;
37097;SDS011;63608;49.572;12.348;2023-01-26T04:50:09;21.20;;;12.50;;
37097;SDS011;63608;49.572;12.348;2023-01-26T04:52:12;22.70;;;11.97;;
37097;SDS011;63608;49.572;12.348;2023-01-26T04:54:14;20.30;;;11.57;;
37097;SDS011;63608;49.572;12.348;2023-01-26T04:56:17;26.27;;;12.27;;
37097;SDS011;63608;49.572;12.348;2023-01-26T04:58:21;24.10;;;12.60;;
37097;SDS011;63608;49.572;12.348;2023-01-26T05:00:22;21.13;;;11.80;;
37097;SDS011;63608;49.572;12.348;2023-01-26T05:02:24;22.80;;;11.63;;
37097;SDS011;63608;49.572;12.348;2023-01-26T05:04:27;23.67;;;12.40;;
37097;SDS011;63608;49.572;12.348;2023-01-26T05:06:46;24.10;;;13.60;;
37097;SDS011;63608;49.572;12.348;2023-01-26T05:08:49;23.70;;;12.87;;
37097;SDS011;63608;49.572;12.348;2023-01-26T05:10:51;24.90;;;13.67;;
37097;SDS011;63608;49.572;12.348;2023-01-26T05:12:53;23.20;;;12.43;;
37097;SDS011;63608;49.572;12.348;2023-01-26T05:14:56;24.90;;;12.70;;
37097;SDS011;63608;49.572;12.348;2023-01-26T05:16:59;21.33;;;12.10;;
37097;SDS011;63608;49.572;12.348;2023-01-26T05:19:01;20.40;;;12.17;;
37097;SDS011;63608;49.572;12.348;2023-01-26T05:21:21;21.07;;;11.40;;
37097;SDS011;63608;49.572;12.348;2023-01-26T05:23:26;24.97;;;11.90;;
37097;SDS011;63608;49.572;12.348;2023-01-26T05:25:29;23.07;;;12.33;;
37097;SDS011;63608;49.572;12.348;2023-01-26T05:27:31;23.27;;;11.90;;
37097;SDS011;63608;49.572;12.348;2023-01-26T05:29:51;22.23;;;11.77;;
37097;SDS011;63608;49.572;12.348;2023-01-26T05:31:54;21.33;;;10.93;;
37097;SDS011;63608;49.572;12.348;2023-01-26T05:34:14;17.90;;;10.93;;
37097;SDS011;63608;49.572;12.348;2023-01-26T05:36:16;24.67;;;12.40;;
37097;SDS011;63608;49.572;12.348;2023-01-26T05:38:18;23.50;;;12.53;;
37097;SDS011;63608;49.572;12.348;2023-01-26T05:40:20;21.30;;;11.47;;
37097;SDS011;63608;49.572;12.348;2023-01-26T05:42:25;27.00;;;13.47;;
37097;SDS011;63608;49.572;12.348;2023-01-26T05:44:27;24.13;;;13.07;;
37097;SDS011;63608;49.572;12.348;2023-01-26T05:46:29;24.07;;;11.10;;
37097;SDS011;63608;49.572;12.348;2023-01-26T05:48:31;25.30;;;11.80;;
37097;SDS011;63608;49.572;12.348;2023-01-26T05:50:33;22.83;;;11.00;;
37097;SDS011;63608;49.572;12.348;2023-01-26T05:52:35;19.00;;;10.03;;
37097;SDS011;63608;49.572;12.348;2023-01-26T05:54:37;20.60;;;10.93;;
37097;SDS011;63608;49.572;12.348;2023-01-26T05:56:39;23.27;;;11.07;;
37097;SDS011;63608;49.572;12.348;2023-01-26T05:58:42;24.10;;;11.53;;
37097;SDS011;63608;49.572;12.348;2023-01-26T06:00:44;20.43;;;10.87;;
37097;SDS011;63608;49.572;12.348;2023-01-26T06:02:46;20.50;;;10.53;;
37097;SDS011;63608;49.572;12.348;2023-01-26T06:04:48;19.77;;;10.70;;
37097;SDS011;63608;49.572;12.348;2023-01-26T06:06:51;21.30;;;10.60;;
37097;SDS011;63608;49.572;12.348;2023-01-26T06:08:53;15.33;;;9.67;;
37097;SDS011;63608;49.572;12.348;2023-01-26T06:10:57;18.93;;;10.27;;
37097;SDS011;63608;49.572;12.348;2023-01-26T06:12:59;21.00;;;10.80;;
37097;SDS011;63608;49.572;12.348;2023-01-26T06:15:03;21.27;;;11.33;;
37097;SDS011;63608;49.572;12.348;2023-01-26T06:17:06;17.90;;;10.20;;
37097;SDS011;63608;49.572;12.348;2023-01-26T06:19:08;20.80;;;10.77;;
37097;SDS011;63608;49.572;12.348;2023-01-26T06:21:11;19.00;;;10.77;;
37097;SDS011;63608;49.572;12.348;2023-01-26T06:23:13;21.27;;;10.20;;
37097;SDS011;63608;49.572;12.348;2023-01-26T06:25:15;18.60;;;10.53;;
37097;SDS011;63608;49.572;12.348;2023-01-26T06:27:17;23.00;;;10.90;;
37097;SDS011;63608;49.572;12.348;2023-01-26T06:29:19;16.30;;;9.43;;
37097;SDS011;63608;49.572;12.348;2023-01-26T06:31:23;18.20;;;9.93;;
37097;SDS011;63608;49.572;12.348;2023-01-26T06:33:28;20.00;;;10.03;;
37097;SDS011;63608;49.572;12.348;2023-01-26T06:35:30;27.23;;;16.13;;
37097;SDS011;63608;49.572;12.348;2023-01-26T06:37:32;38.83;;;21.13;;
37097;SDS011;63608;49.572;12.348;2023-01-26T06:39:34;18.97;;;10.23;;
37097;SDS011;63608;49.572;12.348;2023-01-26T06:41:36;20.70;;;9.40;;
37097;SDS011;63608;49.572;12.348;2023-01-26T06:43:38;17.00;;;9.60;;
37097;SDS011;63608;49.572;12.348;2023-01-26T06:45:40;19.60;;;9.73;;
37097;SDS011;63608;49.572;12.348;2023-01-26T06:47:47;20.07;;;10.33;;
37097;SDS011;63608;49.572;12.348;2023-01-26T06:49:49;21.50;;;10.87;;
37097;SDS011;63608;49.572;12.348;2023-01-26T06:51:52;20.00;;;10.40;;
37097;SDS011;63608;49.572;12.348;2023-01-26T06:56:26;21.93;;;9.67;;
37097;SDS011;63608;49.572;12.348;2023-01-26T06:58:29;19.23;;;10.00;;
37097;SDS011;63608;49.572;12.348;2023-01-26T07:00:31;18.80;;;9.70;;
37097;SDS011;63608;49.572;12.348;2023-01-26T07:02:32;20.03;;;10.00;;
37097;SDS011;63608;49.572;12.348;2023-01-26T07:04:36;22.50;;;9.87;;
37097;SDS011;63608;49.572;12.348;2023-01-26T07:06:38;23.67;;;11.50;;
37097;SDS011;63608;49.572;12.348;2023-01-26T07:08:40;23.80;;;12.80;;
37097;SDS011;63608;49.572;12.348;2023-01-26T07:10:42;18.40;;;9.90;;
37097;SDS011;63608;49.572;12.348;2023-01-26T07:12:44;25.53;;;11.00;;
37097;SDS011;63608;49.572;12.348;2023-01-26T07:14:46;18.93;;;10.30;;
37097;SDS011;63608;49.572;12.348;2023-01-26T07:16:50;18.27;;;9.40;;
37097;SDS011;63608;49.572;12.348;2023-01-26T07:18:52;17.23;;;9.40;;
37097;SDS011;63608;49.572;12.348;2023-01-26T07:21:00;18.23;;;9.77;;
37097;SDS011;63608;49.572;12.348;2023-01-26T07:23:02;18.57;;;10.10;;
37097;SDS011;63608;49.572;12.348;2023-01-26T07:25:04;20.60;;;10.77;;
37097;SDS011;63608;49.572;12.348;2023-01-26T07:27:06;21.83;;;10.70;;
37097;SDS011;63608;49.572;12.348;2023-01-26T07:29:08;23.90;;;12.50;;
37097;SDS011;63608;49.572;12.348;2023-01-26T07:31:10;55.10;;;25.43;;
37097;SDS011;63608;49.572;12.348;2023-01-26T07:33:12;22.67;;;10.97;;
37097;SDS011;63608;49.572;12.348;2023-01-26T07:35:14;23.83;;;14.60;;
37097;SDS011;63608;49.572;12.348;2023-01-26T07:37:17;18.70;;;9.67;;
37097;SDS011;63608;49.572;12.348;2023-01-26T07:39:25;18.83;;;9.23;;
37097;SDS011;63608;49.572;12.348;2023-01-26T07:41:27;19.90;;;9.53;;
37097;SDS011;63608;49.572;12.348;2023-01-26T07:43:31;18.07;;;9.67;;
37097;SDS011;63608;49.572;12.348;2023-01-26T07:45:33;21.53;;;10.63;;
37097;SDS011;63608;49.572;12.348;2023-01-26T07:47:36;20.17;;;10.23;;
37097;SDS011;63608;49.572;12.348;2023-01-26T07:49:38;19.10;;;10.50;;
37097;SDS011;63608;49.572;12.348;2023-01-26T07:51:40;20.93;;;10.10;;
37097;SDS011;63608;49.572;12.348;2023-01-26T07:53:43;17.17;;;9.40;;
37097;SDS011;63608;49.572;12.348;2023-01-26T07:55:48;19.10;;;9.90;;
37097;SDS011;63608;49.572;12.348;2023-01-26T07:57:50;17.73;;;9.73;;
37097;SDS011;63608;49.572;12.348;2023-01-26T07:59:52;19.43;;;10.00;;
37097;SDS011;63608;49.572;12.348;2023-01-26T08:01:54;18.60;;;9.80;;
37097;SDS011;63608;49.572;12.348;2023-01-26T08:03:56;20.77;;;10.50;;
37097;SDS011;63608;49.572;12.348;2023-01-26T08:05:58;23.63;;;11.17;;
37097;SDS011;63608;49.572;12.348;2023-01-26T08:08:00;19.50;;;9.53;;
37097;SDS011;63608;49.572;12.348;2023-01-26T08:10:04;17.90;;;9.57;;
37097;SDS011;63608;49.572;12.348;2023-01-26T08:12:06;19.63;;;9.50;;
37097;SDS011;63608;49.572;12.348;2023-01-26T08:14:08;16.83;;;8.60;;
37097;SDS011;63608;49.572;12.348;2023-01-26T08:16:10;18.03;;;10.17;;
37097;SDS011;63608;49.572;12.348;2023-01-26T08:18:12;16.00;;;9.40;;
37097;SDS011;63608;49.572;12.348;2023-01-26T08:20:14;14.93;;;7.80;;
37097;SDS011;63608;49.572;12.348;2023-01-26T08:22:16;13.83;;;8.00;;
37097;SDS011;63608;49.572;12.348;2023-01-26T08:24:18;17.10;;;9.27;;
37097;SDS011;63608;49.572;12.348;2023-01-26T08:26:22;16.97;;;8.80;;
37097;SDS011;63608;49.572;12.348;2023-01-26T08:28:24;16.37;;;8.47;;
37097;SDS011;63608;49.572;12.348;2023-01-26T08:30:26;17.40;;;8.57;;
37097;SDS011;63608;49.572;12.348;2023-01-26T08:32:28;15.73;;;8.80;;
37097;SDS011;63608;49.572;12.348;2023-01-26T08:34:37;16.10;;;8.90;;
37097;SDS011;63608;49.572;12.348;2023-01-26T08:36:39;12.37;;;7.33;;
37097;SDS011;63608;49.572;12.348;2023-01-26T08:38:41;13.27;;;7.67;;
37097;SDS011;63608;49.572;12.348;2023-01-26T08:40:44;44.97;;;27.90;;
37097;SDS011;63608;49.572;12.348;2023-01-26T08:42:53;14.20;;;8.70;;
37097;SDS011;63608;49.572;12.348;2023-01-26T08:44:55;15.60;;;8.87;;
37097;SDS011;63608;49.572;12.348;2023-01-26T08:46:57;48.63;;;19.23;;
37097;SDS011;63608;49.572;12.348;2023-01-26T08:48:59;17.87;;;10.13;;
37097;SDS011;63608;49.572;12.348;2023-01-26T08:51:02;15.73;;;7.43;;
37097;SDS011;63608;49.572;12.348;2023-01-26T08:53:05;15.80;;;8.90;;
37097;SDS011;63608;49.572;12.348;2023-01-26T08:55:07;14.43;;;7.70;;
37097;SDS011;63608;49.572;12.348;2023-01-26T08:57:09;21.90;;;13.03;;
37097;SDS011;63608;49.572;12.348;2023-01-26T08:59:13;17.07;;;8.83;;
37097;SDS011;63608;49.572;12.348;2023-01-26T09:01:15;24.13;;;13.97;;
37097;SDS011;63608;49.572;12.348;2023-01-26T09:03:17;17.80;;;10.70;;
37097;SDS011;63608;49.572;12.348;2023-01-26T09:05:19;16.27;;;8.90;;
37097;SDS011;63608;49.572;12.348;2023-01-26T09:07:21;19.20;;;10.70;;
37097;SDS011;63608;49.572;12.348;2023-01-26T09:09:23;14.17;;;7.83;;
37097;SDS011;63608;49.572;12.348;2023-01-26T09:11:25;12.63;;;8.10;;
37097;SDS011;63608;49.572;12.348;2023-01-26T09:13:27;12.67;;;7.90;;
37097;SDS011;63608;49.572;12.348;2023-01-26T09:15:30;14.43;;;8.40;;
37097;SDS011;63608;49.572;12.348;2023-01-26T09:17:32;15.03;;;8.40;;
37097;SDS011;63608;49.572;12.348;2023-01-26T09:19:34;12.90;;;8.00;;
37097;SDS011;63608;49.572;12.348;2023-01-26T09:21:36;19.00;;;11.60;;
37097;SDS011;63608;49.572;12.348;2023-01-26T09:23:38;15.10;;;8.60;;
37097;SDS011;63608;49.572;12.348;2023-01-26T09:25:40;16.70;;;9.27;;
37097;SDS011;63608;49.572;12.348;2023-01-26T09:27:42;17.70;;;9.17;;
37097;SDS011;63608;49.572;12.348;2023-01-26T09:29:44;16.17;;;8.50;;
37097;SDS011;63608;49.572;12.348;2023-01-26T09:31:48;17.03;;;9.17;;
37097;SDS011;63608;49.572;12.348;2023-01-26T09:33:50;26.60;;;15.60;;
37097;SDS011;63608;49.572;12.348;2023-01-26T09:35:51;19.23;;;10.83;;
37097;SDS011;63608;49.572;12.348;2023-01-26T09:37:53;18.87;;;10.80;;
37097;SDS011;63608;49.572;12.348;2023-01-26T09:39:55;19.67;;;11.17;;
37097;SDS011;63608;49.572;12.348;2023-01-26T09:42:02;17.67;;;10.60;;
37097;SDS011;63608;49.572;12.348;2023-01-26T09:44:12;16.37;;;10.87;;
37097;SDS011;63608;49.572;12.348;2023-01-26T09:46:19;19.07;;;10.17;;
37097;SDS011;63608;49.572;12.348;2023-01-26T09:48:27;15.50;;;8.90;;
37097;SDS011;63608;49.572;12.348;2023-01-26T09:50:34;15.70;;;9.20;;
37097;SDS011;63608;49.572;12.348;2023-01-26T09:52:40;17.53;;;9.07;;
37097;SDS011;63608;49.572;12.348;2023-01-26T09:54:49;21.77;;;10.70;;
37097;SDS011;63608;49.572;12.348;2023-01-26T09:56:53;18.53;;;10.30;;
37097;SDS011;63608;49.572;12.348;2023-01-26T09:58:56;19.10;;;11.83;;
37097;SDS011;63608;49.572;12.348;2023-01-26T10:01:01;16.87;;;9.73;;
37097;SDS011;63608;49.572;12.348;2023-01-26T10:03:08;19.50;;;10.03;;
37097;SDS011;63608;49.572;12.348;2023-01-26T10:05:19;19.30;;;10.60;;
37097;SDS011;63608;49.572;12.348;2023-01-26T10:07:25;18.97;;;9.77;;
37097;SDS011;63608;49.572;12.348;2023-01-26T10:09:28;19.60;;;9.93;;
37097;SDS011;63608;49.572;12.348;2023-01-26T10:11:35;15.53;;;9.60;;
37097;SDS011;63608;49.572;12.348;2023-01-26T10:13:38;19.27;;;10.90;;
37097;SDS011;63608;49.572;12.348;2023-01-26T10:15:42;18.87;;;9.90;;
37097;SDS011;63608;49.572;12.348;2023-01-26T10:17:45;22.77;;;14.13;;
37097;SDS011;63608;49.572;12.348;2023-01-26T10:20:26;16.47;;;9.47;;
37097;SDS011;63608;49.572;12.348;2023-01-26T10:22:30;20.27;;;10.40;;
37097;SDS011;63608;49.572;12.348;2023-01-26T10:24:36;21.57;;;10.90;;
37097;SDS011;63608;49.572;12.348;2023-01-26T10:26:39;19.07;;;11.30;;
37097;SDS011;63608;49.572;12.348;2023-01-26T10:28:41;20.50;;;11.73;;
37097;SDS011;63608;49.572;12.348;2023-01-26T10:30:44;22.07;;;11.23;;
37097;SDS011;63608;49.572;12.348;2023-01-26T10:32:49;25.63;;;11.67;;
37097;SDS011;63608;49.572;12.348;2023-01-26T10:34:53;21.63;;;12.00;;
37097;SDS011;63608;49.572;12.348;2023-01-26T10:36:59;18.53;;;11.07;;
37097;SDS011;63608;49.572;12.348;2023-01-26T10:39:06;20.63;;;11.27;;
37097;SDS011;63608;49.572;12.348;2023-01-26T10:43:26;20.53;;;11.13;;
37097;SDS011;63608;49.572;12.348;2023-01-26T10:45:29;22.17;;;11.77;;
37097;SDS011;63608;49.572;12.348;2023-01-26T10:47:31;20.27;;;11.13;;
37097;SDS011;63608;49.572;12.348;2023-01-26T10:49:33;19.90;;;11.47;;
37097;SDS011;63608;49.572;12.348;2023-01-26T10:51:36;20.20;;;11.10;;
37097;SDS011;63608;49.572;12.348;2023-01-26T10:53:41;22.50;;;11.80;;
37097;SDS011;63608;49.572;12.348;2023-01-26T10:55:43;20.73;;;11.57;;
37097;SDS011;63608;49.572;12.348;2023-01-26T10:57:59;18.83;;;10.60;;
37097;SDS011;63608;49.572;12.348;2023-01-26T11:00:03;19.40;;;11.07;;
37097;SDS011;63608;49.572;12.348;2023-01-26T11:02:20;19.77;;;11.40;;
37097;SDS011;63608;49.572;12.348;2023-01-26T11:04:23;17.90;;;10.40;;
37097;SDS011;63608;49.572;12.348;2023-01-26T11:06:26;21.00;;;11.53;;
37097;SDS011;63608;49.572;12.348;2023-01-26T11:08:30;19.37;;;11.10;;
37097;SDS011;63608;49.572;12.348;2023-01-26T11:10:35;17.13;;;10.20;;
37097;SDS011;63608;49.572;12.348;2023-01-26T11:12:38;20.77;;;11.30;;
37097;SDS011;63608;49.572;12.348;2023-01-26T11:14:40;20.37;;;12.80;;
37097;SDS011;63608;49.572;12.348;2023-01-26T11:16:43;22.87;;;12.30;;
37097;SDS011;63608;49.572;12.348;2023-01-26T11:18:50;21.37;;;12.50;;
37097;SDS011;63608;49.572;12.348;2023-01-26T11:20:56;23.37;;;12.43;;
37097;SDS011;63608;49.572;12.348;2023-01-26T11:23:01;23.47;;;12.00;;
37097;SDS011;63608;49.572;12.348;2023-01-26T11:25:07;25.07;;;12.90;;
37097;SDS011;63608;49.572;12.348;2023-01-26T11:27:21;26.50;;;14.87;;
37097;SDS011;63608;49.572;12.348;2023-01-26T11:29:41;23.17;;;12.33;;
37097;SDS011;63608;49.572;12.348;2023-01-26T11:31:53;25.43;;;13.37;;
37097;SDS011;63608;49.572;12.348;2023-01-26T11:34:00;23.80;;;13.00;;
37097;SDS011;63608;49.572;12.348;2023-01-26T11:36:09;23.60;;;12.43;;
37097;SDS011;63608;49.572;12.348;2023-01-26T11:38:19;25.30;;;13.30;;
37097;SDS011;63608;49.572;12.348;2023-01-26T11:40:30;22.80;;;12.90;;
37097;SDS011;63608;49.572;12.348;2023-01-26T11:42:42;24.93;;;13.53;;
37097;SDS011;63608;49.572;12.348;2023-01-26T11:44:59;24.00;;;13.30;;
37097;SDS011;63608;49.572;12.348;2023-01-26T11:49:51;25.47;;;12.90;;
37097;SDS011;63608;49.572;12.348;2023-01-26T11:52:00;20.83;;;11.33;;
37097;SDS011;63608;49.572;12.348;2023-01-26T11:54:17;24.33;;;12.70;;
37097;SDS011;63608;49.572;12.348;2023-01-26T11:56:29;21.23;;;10.17;;
37097;SDS011;63608;49.572;12.348;2023-01-26T11:58:39;20.50;;;11.40;;
37097;SDS011;63608;49.572;12.348;2023-01-26T12:00:43;20.20;;;11.60;;
37097;SDS011;63608;49.572;12.348;2023-01-26T12:02:49;21.03;;;10.17;;
37097;SDS011;63608;49.572;12.348;2023-01-26T12:05:14;18.40;;;11.53;;
37097;SDS011;63608;49.572;12.348;2023-01-26T12:07:19;19.57;;;10.97;;
37097;SDS011;63608;49.572;12.348;2023-01-26T12:09:24;18.97;;;10.87;;